Time;durP1;ratioP1;P1;durP2;ratioP2;P2;SDS_P1;SDS_P2;PMS_P1;PMS_P2;Temp;Humidity;BMP_temperature;BMP_pressure;BME280_temperature;BME280_humidity;BME280_pressure;Samples;Min_cycle;Max_cycle;Signal;HPM_P1;HPM_P2
2021/11/23 00:01:19;;;;;;;14.82;5.68;;;;;;;4.56;58.19;103052.59;4945180;28;123921;-72
2021/11/23 00:03:47;;;;;;;10.50;5.22;;;;;;;4.55;57.93;103043.00;4947174;28;124018;-72
2021/11/23 00:06:14;;;;;;;9.95;5.40;;;;;;;4.55;58.08;103053.47;4932043;28;118524;-72
2021/11/23 00:08:42;;;;;;;10.45;5.47;;;;;;;4.53;58.11;103039.47;4949179;28;118526;-72
2021/11/23 00:11:09;;;;;;;11.30;5.93;;;;;;;4.53;58.01;103050.84;4941561;28;123911;-71
2021/11/23 00:13:36;;;;;;;12.15;5.22;;;;;;;4.53;58.25;103044.72;4948928;28;123809;-71
2021/11/23 00:16:04;;;;;;;12.18;5.68;;;;;;;4.53;58.27;103042.09;4948783;28;119868;-71
2021/11/23 00:18:31;;;;;;;10.95;5.25;;;;;;;4.53;58.36;103049.97;4931936;28;120094;-71
2021/11/23 00:20:58;;;;;;;10.82;5.85;;;;;;;4.54;58.15;103046.44;4931758;28;123636;-72
2021/11/23 00:23:25;;;;;;;13.48;6.03;;;;;;;4.53;58.31;103044.72;4946869;28;124554;-72
2021/11/23 00:25:52;;;;;;;12.15;5.75;;;;;;;4.52;58.26;103048.19;4931352;28;122053;-72
2021/11/23 00:28:19;;;;;;;11.02;5.97;;;;;;;4.51;58.18;103049.06;4949004;28;120536;-72
2021/11/23 00:30:46;;;;;;;12.75;5.40;;;;;;;4.49;58.46;103039.41;4947519;28;123933;-71
2021/11/23 00:33:14;;;;;;;14.38;6.18;;;;;;;4.49;58.43;103044.66;4930654;28;122808;-71
2021/11/23 00:35:42;;;;;;;15.68;5.93;;;;;;;4.51;58.27;103035.94;4949344;28;119722;-72
2021/11/23 00:38:14;;;;;;;17.08;6.22;;;;;;;4.49;58.40;103038.53;4945954;28;119166;-72
2021/11/23 00:40:42;;;;;;;12.18;5.78;;;;;;;4.47;58.20;103041.13;4930463;28;123491;-71
2021/11/23 00:43:09;;;;;;;12.35;5.82;;;;;;;4.46;58.23;103023.63;4949101;28;124181;-71
2021/11/23 00:45:39;;;;;;;13.52;6.25;;;;;;;4.45;58.22;103037.59;4928002;28;118540;-71
2021/11/23 00:48:06;;;;;;;15.48;6.35;;;;;;;4.46;58.47;103039.38;4931010;28;118644;-71
2021/11/23 00:50:35;;;;;;;15.45;5.80;;;;;;;4.45;58.12;103029.72;4929623;28;123617;-71
2021/11/23 00:53:03;;;;;;;11.77;5.72;;;;;;;4.44;58.17;103033.19;4914794;28;123552;-71
2021/11/23 00:55:32;;;;;;;15.63;5.93;;;;;;;4.43;58.23;103028.81;4946127;28;119141;-72
2021/11/23 00:57:59;;;;;;;15.32;5.72;;;;;;;4.41;58.03;103025.28;4948702;28;118748;-71
2021/11/23 01:00:26;;;;;;;15.10;6.15;;;;;;;4.38;58.24;103035.72;4947644;28;124113;-72
2021/11/23 01:02:57;;;;;;;14.20;6.43;;;;;;;4.37;58.26;103031.34;4946345;28;124059;-71
2021/11/23 01:05:25;;;;;;;14.57;6.20;;;;;;;4.35;58.18;103022.56;4930113;28;118241;-71
2021/11/23 01:07:52;;;;;;;16.20;6.65;;;;;;;4.34;58.30;103028.66;4947774;28;119630;-71
2021/11/23 01:10:20;;;;;;;14.32;6.00;;;;;;;4.35;58.13;103024.28;4929271;28;123007;-71
2021/11/23 01:12:49;;;;;;;13.98;6.40;;;;;;;4.35;58.17;103024.28;4948899;28;125389;-71
2021/11/23 01:15:16;;;;;;;15.80;5.90;;;;;;;4.34;58.12;103023.41;4948653;28;120244;-71
2021/11/23 01:17:44;;;;;;;16.00;5.82;;;;;;;4.34;58.09;103019.91;4947855;28;119578;-72
2021/11/23 01:20:11;;;;;;;14.00;6.38;;;;;;;4.34;58.28;103012.94;4945747;28;123983;-72
2021/11/23 01:22:43;;;;;;;12.23;6.18;;;;;;;4.35;58.32;103001.59;4946670;28;123795;-72
2021/11/23 01:25:12;;;;;;;10.95;6.18;;;;;;;4.37;58.48;102998.97;4945293;28;119854;-72
2021/11/23 01:27:39;;;;;;;12.70;6.28;;;;;;;4.37;58.67;103002.50;4947939;28;118965;-72
2021/11/23 01:30:09;;;;;;;12.35;6.18;;;;;;;4.38;58.32;102993.75;4945627;28;123824;-72
2021/11/23 01:32:36;;;;;;;11.18;6.40;;;;;;;4.40;58.50;102991.16;4945850;28;125954;-72
2021/11/23 01:35:05;;;;;;;10.98;5.90;;;;;;;4.41;58.58;102996.44;4947462;28;119082;-72
2021/11/23 01:37:35;;;;;;;13.15;6.25;;;;;;;4.44;58.86;103004.31;4927459;28;119274;-72
2021/11/23 01:40:03;;;;;;;11.95;6.63;;;;;;;4.48;58.88;103000.91;4928562;28;123958;-72
2021/11/23 01:42:30;;;;;;;18.17;6.68;;;;;;;4.51;58.86;102997.44;4944620;28;123633;-71
2021/11/23 01:44:57;;;;;;;14.32;7.00;;;;;;;4.54;58.97;102993.97;4943253;28;119777;-72
2021/11/23 01:47:24;;;;;;;14.07;6.65;;;;;;;4.57;58.78;102994.03;4946634;28;118844;-72
2021/11/23 01:49:51;;;;;;;13.38;6.65;;;;;;;4.60;58.90;102991.47;4947033;28;123945;-72
2021/11/23 01:52:18;;;;;;;13.52;7.30;;;;;;;4.65;58.65;102993.28;4945443;28;123666;-72
2021/11/23 01:54:46;;;;;;;12.05;6.18;;;;;;;4.69;59.12;102994.22;4947481;28;118996;-72
2021/11/23 01:57:13;;;;;;;14.23;6.18;;;;;;;4.72;58.89;102994.25;4945819;28;119039;-72
2021/11/23 01:59:40;;;;;;;15.32;7.07;;;;;;;4.75;58.96;103010.06;4947675;28;123903;-72
2021/11/23 02:02:07;;;;;;;13.60;6.35;;;;;;;4.79;59.19;103000.47;4946748;28;123838;-72
2021/11/23 02:04:35;;;;;;;14.48;6.03;;;;;;;4.83;59.14;102992.66;4946947;28;120212;-72
2021/11/23 02:07:02;;;;;;;14.25;6.10;;;;;;;4.87;59.19;102988.31;4946782;28;119922;-72
2021/11/23 02:09:30;;;;;;;14.88;6.57;;;;;;;4.90;59.31;102992.72;4947626;28;123688;-72
2021/11/23 02:11:58;;;;;;;12.15;6.32;;;;;;;4.95;59.29;103012.06;4930173;28;124135;-71
2021/11/23 02:14:28;;;;;;;12.55;6.35;;;;;;;4.98;59.29;103001.59;4947802;28;118898;-72
2021/11/23 02:16:56;;;;;;;11.63;6.60;;;;;;;5.02;59.26;103003.41;4947673;28;120865;-71
2021/11/23 02:19:23;;;;;;;13.90;6.18;;;;;;;5.07;59.35;103006.97;4946405;28;124587;-72
2021/11/23 02:21:50;;;;;;;11.68;6.03;;;;;;;5.11;59.50;103003.53;4927931;28;124867;-72
2021/11/23 02:24:18;;;;;;;14.70;6.60;;;;;;;5.14;59.24;103006.19;4931738;28;119282;-72
2021/11/23 02:26:45;;;;;;;10.88;6.10;;;;;;;5.19;59.52;102996.59;4950469;28;119809;-72
2021/11/23 02:29:12;;;;;;;11.45;5.95;;;;;;;5.23;59.51;103000.16;4931829;28;123472;-72
2021/11/23 02:31:39;;;;;;;13.30;6.05;;;;;;;5.25;59.21;102991.44;4948233;28;123577;-72
2021/11/23 02:34:07;;;;;;;11.73;6.00;;;;;;;5.30;59.57;102995.88;4950239;28;119294;-72
2021/11/23 02:36:36;;;;;;;15.77;6.25;;;;;;;5.33;59.26;102993.25;4950097;28;118624;-72
2021/11/23 02:39:04;;;;;;;11.85;6.35;;;;;;;5.35;59.32;102996.78;4950445;28;124444;-72
2021/11/23 02:41:32;;;;;;;11.90;6.57;;;;;;;5.38;59.22;102991.56;4947678;28;124990;-72
2021/11/23 02:43:59;;;;;;;11.02;5.82;;;;;;;5.42;59.45;102994.25;4950904;28;119671;-72
2021/11/23 02:46:26;;;;;;;13.52;6.25;;;;;;;5.46;59.38;102989.91;4950178;28;119583;-72
2021/11/23 02:48:53;;;;;;;11.80;5.78;;;;;;;5.51;59.60;102988.22;4950578;28;124033;-72
2021/11/23 02:51:20;;;;;;;14.65;5.93;;;;;;;5.55;59.48;102990.00;4949377;28;123660;-72
2021/11/23 02:53:50;;;;;;;14.30;6.22;;;;;;;5.59;59.76;102983.91;4947383;28;119654;-72
2021/11/23 02:56:18;;;;;;;10.50;5.78;;;;;;;5.64;59.58;102976.97;4949937;28;118995;-72
2021/11/23 02:58:49;;;;;;;11.18;6.15;;;;;;;5.69;59.44;102976.13;4929405;28;123073;-72
2021/11/23 03:01:23;;;;;;;9.40;5.57;;;;;;;5.72;59.62;102976.16;4945104;28;123651;-72
2021/11/23 03:03:52;;;;;;;14.20;5.80;;;;;;;5.76;59.77;102962.16;4947621;28;119134;-72
2021/11/23 03:06:21;;;;;;;11.65;5.57;;;;;;;5.78;59.65;102963.97;4949938;28;118668;-72
2021/11/23 03:08:50;;;;;;;11.30;5.68;;;;;;;5.83;59.55;102964.00;4947293;28;123777;-72
2021/11/23 03:11:19;;;;;;;10.48;5.85;;;;;;;5.85;59.69;102963.13;4948692;28;125086;-72
2021/11/23 03:13:46;;;;;;;11.52;6.03;;;;;;;5.88;59.53;102957.03;4931697;28;118590;-72
2021/11/23 03:16:14;;;;;;;13.50;6.15;;;;;;;5.92;59.75;102958.81;4949979;28;118676;-72
2021/11/23 03:18:41;;;;;;;15.68;6.57;;;;;;;5.95;59.43;102960.56;4949312;28;124015;-72
2021/11/23 03:21:08;;;;;;;16.30;7.57;;;;;;;5.99;59.53;102965.94;4946217;28;123041;-72
2021/11/23 03:23:35;;;;;;;14.13;7.35;;;;;;;6.02;59.79;102960.66;4949854;28;119096;-72
2021/11/23 03:26:03;;;;;;;12.15;6.30;;;;;;;6.06;59.92;102965.97;4947444;28;118881;-72
2021/11/23 03:28:30;;;;;;;9.02;4.97;;;;;;;6.08;59.63;102954.56;4932510;28;123055;-73
2021/11/23 03:30:57;;;;;;;12.00;5.53;;;;;;;6.13;59.82;102957.25;4931289;28;123347;-73
2021/11/23 03:33:24;;;;;;;9.15;5.15;;;;;;;6.17;60.18;102965.19;4949749;28;119718;-72
2021/11/23 03:35:54;;;;;;;10.88;4.80;;;;;;;6.21;60.02;102964.31;4949434;28;119198;-72
2021/11/23 03:38:21;;;;;;;9.95;4.95;;;;;;;6.26;60.04;102964.38;4947034;28;124740;-72
2021/11/23 03:40:48;;;;;;;8.63;4.95;;;;;;;6.30;60.32;102966.16;4931097;28;123682;-72
2021/11/23 03:43:16;;;;;;;9.15;5.35;;;;;;;6.34;60.17;102973.19;4929268;28;119099;-72
2021/11/23 03:45:43;;;;;;;9.88;4.93;;;;;;;6.38;59.92;102964.44;4949364;28;119712;-72
2021/11/23 03:48:11;;;;;;;10.75;5.18;;;;;;;6.42;60.00;102966.25;4929718;28;123548;-72
2021/11/23 03:50:39;;;;;;;11.15;4.88;;;;;;;6.50;60.18;102968.03;4947301;28;123624;-72
2021/11/23 03:53:06;;;;;;;9.95;4.95;;;;;;;6.54;60.07;102967.19;4948536;28;120037;-72
2021/11/23 03:55:36;;;;;;;10.20;5.22;;;;;;;6.56;60.21;102965.44;4949516;28;117947;-73
2021/11/23 03:58:04;;;;;;;9.70;5.15;;;;;;;6.59;60.13;102965.44;4948889;28;124806;-73
2021/11/23 04:00:32;;;;;;;12.02;5.30;;;;;;;6.62;60.20;102968.09;4946651;28;124646;-73
2021/11/23 04:02:59;;;;;;;11.52;5.43;;;;;;;6.64;59.95;102961.09;4929406;28;120037;-72
2021/11/23 04:05:26;;;;;;;9.85;5.25;;;;;;;6.65;59.94;102962.88;4947464;28;118881;-72
2021/11/23 04:07:54;;;;;;;9.80;5.32;;;;;;;6.66;60.23;102964.63;4942262;28;124242;-72
2021/11/23 04:10:22;;;;;;;11.85;5.80;;;;;;;6.67;60.06;102955.84;4929725;28;123859;-72
2021/11/23 04:12:51;;;;;;;11.73;5.65;;;;;;;6.69;59.96;102954.13;4948544;28;119388;-73
2021/11/23 04:15:19;;;;;;;11.02;5.70;;;;;;;6.70;60.11;102961.13;4948814;28;118593;-73
2021/11/23 04:17:48;;;;;;;10.93;5.70;;;;;;;6.71;60.14;102955.00;4946959;28;124744;-72
2021/11/23 04:20:15;;;;;;;10.57;5.75;;;;;;;6.71;60.06;102952.38;4948262;28;124641;-73
2021/11/23 04:22:43;;;;;;;11.65;5.43;;;;;;;6.74;60.21;102957.66;4948921;28;119099;-72
2021/11/23 04:25:12;;;;;;;11.25;5.55;;;;;;;6.75;60.17;102948.88;4949000;28;118595;-73
2021/11/23 04:27:39;;;;;;;9.23;5.28;;;;;;;6.76;60.04;102950.66;4948335;28;124919;-73
2021/11/23 04:30:08;;;;;;;11.38;5.55;;;;;;;6.77;59.95;102962.91;4930874;28;124405;-73
2021/11/23 04:32:35;;;;;;;9.23;4.85;;;;;;;6.78;60.07;102956.78;4947527;28;120146;-73
2021/11/23 04:35:04;;;;;;;8.82;5.28;;;;;;;6.77;59.91;102952.38;4947478;28;119732;-73
2021/11/23 04:37:31;;;;;;;10.95;5.03;;;;;;;6.79;60.02;102955.91;4946108;28;124715;-73
2021/11/23 04:39:59;;;;;;;10.65;5.35;;;;;;;6.79;60.05;102955.03;4948300;28;122844;-73
2021/11/23 04:42:26;;;;;;;11.52;6.03;;;;;;;6.80;60.07;102957.69;4945734;28;119337;-73
2021/11/23 04:44:54;;;;;;;11.15;5.65;;;;;;;6.78;60.05;102954.16;4929015;28;118895;-73
2021/11/23 04:47:22;;;;;;;11.93;5.55;;;;;;;6.77;59.95;102952.38;4947380;28;123902;-72
2021/11/23 04:49:49;;;;;;;11.55;5.55;;;;;;;6.78;59.82;102948.91;4947184;28;124223;-73
2021/11/23 04:52:16;;;;;;;9.73;5.80;;;;;;;6.76;60.22;102945.38;4947500;28;119186;-73
2021/11/23 04:54:43;;;;;;;11.68;5.35;;;;;;;6.76;60.05;102948.00;4948464;28;119326;-73
2021/11/23 04:57:10;;;;;;;11.07;5.95;;;;;;;6.74;60.03;102947.13;4947634;28;124414;-72
2021/11/23 04:59:37;;;;;;;11.80;5.88;;;;;;;6.73;60.26;102947.09;4947122;28;124358;-73
2021/11/23 05:02:04;;;;;;;11.70;5.90;;;;;;;6.73;60.27;102945.34;4947736;28;119563;-73
2021/11/23 05:04:31;;;;;;;15.13;6.20;;;;;;;6.73;60.48;102945.34;4945604;28;118877;-73
2021/11/23 05:06:59;;;;;;;11.02;5.78;;;;;;;6.75;60.24;102948.88;4947944;28;124182;-72
2021/11/23 05:09:26;;;;;;;12.88;5.97;;;;;;;6.78;60.06;102951.53;4948472;28;123701;-73
2021/11/23 05:11:53;;;;;;;10.52;5.72;;;;;;;6.78;60.46;102948.91;4947653;28;119303;-73
2021/11/23 05:14:22;;;;;;;9.85;5.90;;;;;;;6.80;60.49;102952.41;4947864;28;119156;-72
2021/11/23 05:16:50;;;;;;;11.38;5.82;;;;;;;6.81;60.31;102954.16;4950546;28;123818;-72
2021/11/23 05:19:17;;;;;;;10.88;5.65;;;;;;;6.83;60.37;102941.88;4949708;28;125484;-72
2021/11/23 05:21:44;;;;;;;10.75;5.30;;;;;;;6.85;60.10;102938.38;4931711;28;120682;-72
2021/11/23 05:24:13;;;;;;;10.70;5.43;;;;;;;6.86;60.18;102940.16;4948327;28;118216;-72
2021/11/23 05:26:41;;;;;;;9.80;5.75;;;;;;;6.85;60.08;102944.53;4950176;28;124267;-72
2021/11/23 05:29:10;;;;;;;12.25;5.72;;;;;;;6.86;60.32;102937.53;4931244;28;122392;-72
2021/11/23 05:31:37;;;;;;;8.93;5.20;;;;;;;6.87;60.29;102942.78;4949060;28;119864;-72
2021/11/23 05:34:04;;;;;;;12.68;5.75;;;;;;;6.88;60.22;102939.28;4950721;28;118527;-72
2021/11/23 05:36:35;;;;;;;11.80;5.90;;;;;;;6.89;60.41;102942.78;4948612;28;124612;-74
2021/11/23 05:39:04;;;;;;;11.75;5.28;;;;;;;6.90;60.26;102936.66;4953765;28;123158;-72
2021/11/23 05:41:32;;;;;;;12.10;5.95;;;;;;;6.91;60.27;102946.28;4954984;28;118927;-73
2021/11/23 05:43:59;;;;;;;12.60;5.63;;;;;;;6.92;60.64;102940.16;4948430;28;118787;-73
2021/11/23 05:46:26;;;;;;;13.73;5.80;;;;;;;6.95;60.57;102940.16;4947662;28;124587;-73
2021/11/23 05:48:54;;;;;;;12.40;5.28;;;;;;;6.95;60.39;102935.78;4947917;28;123748;-73
2021/11/23 05:51:21;;;;;;;10.75;5.75;;;;;;;6.96;60.46;102936.66;4931996;28;119237;-73
2021/11/23 05:53:48;;;;;;;10.40;5.72;;;;;;;6.97;60.82;102944.59;4949937;28;118768;-73
2021/11/23 05:56:16;;;;;;;10.15;5.47;;;;;;;7.00;60.82;102948.97;4931560;28;123032;-73
2021/11/23 05:58:43;;;;;;;10.27;5.63;;;;;;;7.02;60.22;102944.59;4950839;28;124281;-73
2021/11/23 06:01:10;;;;;;;10.52;5.50;;;;;;;7.07;60.59;102940.22;4950827;28;120071;-73
2021/11/23 06:03:37;;;;;;;9.23;5.22;;;;;;;7.10;60.99;102942.88;4948738;28;119416;-73
2021/11/23 06:06:04;;;;;;;11.40;4.72;;;;;;;7.13;60.67;102945.50;4951774;28;123696;-72
2021/11/23 06:08:31;;;;;;;11.50;5.50;;;;;;;7.17;60.94;102947.28;4933134;28;123472;-73
2021/11/23 06:10:59;;;;;;;9.32;4.90;;;;;;;7.20;60.75;102942.03;4931078;28;120226;-73
2021/11/23 06:13:26;;;;;;;8.30;4.95;;;;;;;7.22;60.44;102940.25;4950710;28;119720;-73
2021/11/23 06:15:53;;;;;;;9.32;5.20;;;;;;;7.26;60.52;102940.28;4949667;28;123852;-73
2021/11/23 06:18:21;;;;;;;7.93;5.20;;;;;;;7.27;60.75;102947.28;4947484;28;124703;-73
2021/11/23 06:20:51;;;;;;;10.48;4.88;;;;;;;7.28;60.57;102943.81;4949016;28;118817;-73
2021/11/23 06:23:18;;;;;;;10.32;5.00;;;;;;;7.27;60.73;102939.38;4931803;28;118038;-74
2021/11/23 06:25:48;;;;;;;11.88;5.03;;;;;;;7.28;60.87;102938.53;4949325;28;124665;-72
2021/11/23 06:28:17;;;;;;;9.63;5.13;;;;;;;7.28;60.76;102943.81;4948341;28;124430;-72
2021/11/23 06:30:44;;;;;;;9.10;5.35;;;;;;;7.30;60.42;102942.03;4932253;28;119732;-72
2021/11/23 06:33:12;;;;;;;9.65;5.18;;;;;;;7.31;60.98;102933.25;4925068;28;118669;-73
2021/11/23 06:35:39;;;;;;;9.77;4.95;;;;;;;7.31;60.90;102939.41;4930372;28;123750;-73
2021/11/23 06:38:08;;;;;;;10.73;4.53;;;;;;;7.33;60.93;102944.69;4932519;28;123808;-74
2021/11/23 06:40:39;;;;;;;10.63;4.65;;;;;;;7.34;60.62;102946.44;4945708;28;118661;-74
2021/11/23 06:43:07;;;;;;;10.65;5.25;;;;;;;7.35;60.87;102945.59;4931597;28;118195;-73
2021/11/23 06:45:36;;;;;;;12.70;4.88;;;;;;;7.40;60.79;102954.34;4945127;28;124548;-73
2021/11/23 06:48:04;;;;;;;9.02;4.97;;;;;;;7.41;60.98;102945.59;4947940;28;124748;-73
2021/11/23 06:50:32;;;;;;;9.10;4.90;;;;;;;7.42;60.88;102947.31;4948134;28;119809;-74
2021/11/23 06:53:01;;;;;;;8.68;5.00;;;;;;;7.44;60.99;102953.50;4932963;28;118201;-73
2021/11/23 06:55:28;;;;;;;8.10;4.50;;;;;;;7.47;60.89;102961.41;4949084;28;123954;-74
2021/11/23 06:57:55;;;;;;;10.30;4.75;;;;;;;7.50;61.23;102953.50;4950010;28;123636;-74
2021/11/23 07:00:22;;;;;;;8.82;5.35;;;;;;;7.52;60.99;102959.66;4945499;28;120455;-73
2021/11/23 07:02:50;;;;;;;11.50;4.65;;;;;;;7.55;61.21;102964.97;4914598;28;119674;-73
2021/11/23 07:07:51;;;;;;;12.80;4.70;;;;;;;7.62;61.22;102964.97;4907351;28;123844;-70
2021/11/23 07:10:18;;;;;;;9.30;4.60;;;;;;;7.66;61.33;102967.59;4903903;28;119028;-70
2021/11/23 07:13:00;;;;;;;9.82;4.63;;;;;;;7.68;60.96;102964.97;4859826;28;118970;-70
2021/11/23 07:15:28;;;;;;;10.77;5.18;;;;;;;7.71;61.46;102970.25;4882413;28;124330;-70
2021/11/23 07:17:55;;;;;;;9.07;4.53;;;;;;;7.73;60.89;102973.78;4873733;28;123878;-70
2021/11/23 07:20:23;;;;;;;9.27;5.28;;;;;;;7.75;61.42;102982.56;4882204;28;119457;-70
2021/11/23 07:22:50;;;;;;;11.35;5.30;;;;;;;7.79;61.20;102984.31;4889327;28;118213;-70
2021/11/23 07:25:18;;;;;;;11.27;5.30;;;;;;;7.81;61.37;102987.84;4885998;28;124092;-70
2021/11/23 07:27:45;;;;;;;8.07;4.80;;;;;;;7.83;61.25;102986.06;4890813;28;123873;-70
2021/11/23 07:30:13;;;;;;;9.52;4.72;;;;;;;7.85;61.06;102984.31;4884568;28;119366;-70
2021/11/23 07:32:40;;;;;;;9.23;4.70;;;;;;;7.88;61.26;102989.59;4885403;28;119338;-70
2021/11/23 07:35:08;;;;;;;10.55;5.30;;;;;;;7.90;61.34;102993.13;4875083;28;123399;-70
2021/11/23 07:37:41;;;;;;;9.07;5.38;;;;;;;7.92;61.31;102991.38;4885833;28;124624;-70
2021/11/23 07:40:10;;;;;;;10.80;4.93;;;;;;;7.93;61.34;102987.84;4876824;28;119176;-70
2021/11/23 07:42:39;;;;;;;9.88;4.85;;;;;;;7.96;61.50;102997.53;4893038;28;118731;-70
2021/11/23 07:45:25;;;;;;;10.05;3.97;;;;;;;7.98;61.35;102996.63;4878900;28;123837;-69
2021/11/23 07:47:53;;;;;;;8.55;4.30;;;;;;;7.99;61.57;103003.69;4891738;28;124417;-69
2021/11/23 07:50:20;;;;;;;12.15;4.60;;;;;;;8.01;61.42;103006.34;4876416;28;120758;-69
2021/11/23 07:52:47;;;;;;;9.57;4.55;;;;;;;8.02;61.15;103001.94;4893142;28;119644;-69
2021/11/23 07:55:16;;;;;;;9.25;4.47;;;;;;;8.05;61.30;103007.22;4890211;28;124346;-70
2021/11/23 07:57:43;;;;;;;10.40;4.60;;;;;;;8.06;61.51;103003.69;4890479;28;124629;-69
2021/11/23 08:00:11;;;;;;;9.85;4.85;;;;;;;8.07;61.24;102994.91;4890743;28;118121;-69
2021/11/23 08:02:41;;;;;;;9.68;5.10;;;;;;;8.10;61.47;102994.88;4892465;28;119292;-69
2021/11/23 08:05:09;;;;;;;12.23;4.20;;;;;;;8.13;61.47;103002.81;4888904;28;123906;-69
2021/11/23 08:07:36;;;;;;;13.10;4.90;;;;;;;8.15;61.52;102993.13;4880854;28;123593;-69
2021/11/23 08:10:04;;;;;;;7.88;4.45;;;;;;;8.17;61.79;103007.19;4889522;28;119774;-69
2021/11/23 08:12:31;;;;;;;11.13;4.50;;;;;;;8.20;61.46;103015.13;4888365;28;119231;-69
2021/11/23 08:14:58;;;;;;;14.35;4.63;;;;;;;8.24;61.65;103019.53;4872118;28;124068;-69
2021/11/23 08:17:26;;;;;;;9.57;5.00;;;;;;;8.28;61.74;103010.72;4876074;28;124178;-70
2021/11/23 08:19:53;;;;;;;9.30;4.93;;;;;;;8.32;61.57;103023.03;4888009;28;119619;-70
2021/11/23 08:22:20;;;;;;;11.45;5.38;;;;;;;8.35;61.64;103015.13;4878736;28;118940;-70
2021/11/23 08:24:47;;;;;;;10.52;4.88;;;;;;;8.39;61.71;103014.22;4873463;28;123053;-70
2021/11/23 08:27:14;;;;;;;11.85;4.55;;;;;;;8.45;61.91;103017.78;4880956;28;123685;-70
2021/11/23 08:29:42;;;;;;;9.02;4.65;;;;;;;8.50;61.72;103021.31;4885619;28;119062;-69
2021/11/23 08:32:09;;;;;;;10.93;4.63;;;;;;;8.53;61.89;103016.00;4881404;28;119067;-69
2021/11/23 08:34:38;;;;;;;8.75;4.80;;;;;;;8.58;61.98;103024.81;4885437;28;124454;-70
2021/11/23 08:37:05;;;;;;;11.00;4.80;;;;;;;8.62;61.64;103021.28;4887055;28;124631;-70
2021/11/23 08:39:33;;;;;;;14.05;5.00;;;;;;;8.66;61.80;103020.38;4886699;28;120304;-69
2021/11/23 08:42:00;;;;;;;10.10;5.07;;;;;;;8.70;61.92;103024.81;4890537;28;120085;-70
2021/11/23 08:44:27;;;;;;;11.93;4.88;;;;;;;8.75;61.53;103023.00;4890538;28;123524;-69
2021/11/23 08:46:54;;;;;;;8.05;4.75;;;;;;;8.81;62.02;103031.81;4891682;28;123982;-70
2021/11/23 08:49:22;;;;;;;11.27;4.97;;;;;;;8.85;62.00;103036.19;4889753;28;119050;-70
2021/11/23 08:51:57;;;;;;;10.50;4.85;;;;;;;8.87;62.05;103032.69;5014324;28;96580;-70
2021/11/23 08:54:25;;;;;;;8.55;4.80;;;;;;;8.93;61.85;103037.09;4973738;28;106293;-69
2021/11/23 08:57:03;;;;;;;9.40;4.82;;;;;;;8.96;61.95;103031.75;4984197;28;125108;-69
2021/11/23 08:59:34;;;;;;;9.57;4.43;;;;;;;8.99;61.92;103037.06;4971177;28;123915;-69
2021/11/23 09:02:01;;;;;;;11.75;4.90;;;;;;;9.03;61.91;103036.16;4981109;28;108082;-69
2021/11/23 09:04:31;;;;;;;12.75;4.90;;;;;;;9.07;62.03;103039.66;4996915;28;107231;-70
2021/11/23 09:07:00;;;;;;;10.10;5.10;;;;;;;9.11;62.04;103037.00;4980776;28;123344;-70
2021/11/23 09:09:28;;;;;;;12.13;5.28;;;;;;;9.18;61.91;103042.28;4975362;28;124375;-70
2021/11/23 09:11:57;;;;;;;9.60;5.10;;;;;;;9.23;62.11;103045.75;4975200;28;107898;-69
2021/11/23 09:14:25;;;;;;;10.95;5.53;;;;;;;9.29;61.92;103045.75;4973263;28;107994;-69
2021/11/23 09:16:52;;;;;;;9.98;5.07;;;;;;;9.33;61.84;103044.88;4963768;28;124432;-69
2021/11/23 09:19:20;;;;;;;11.45;5.25;;;;;;;9.37;62.01;103036.03;4983718;28;123839;-69
2021/11/23 09:21:47;;;;;;;10.02;5.03;;;;;;;9.43;61.99;103041.28;4971050;28;107928;-70
2021/11/23 09:24:15;;;;;;;13.55;5.07;;;;;;;9.47;62.02;103040.38;4971400;28;107085;-70
2021/11/23 09:26:44;;;;;;;12.15;5.43;;;;;;;9.50;61.86;103040.34;4975540;28;123871;-70
2021/11/23 09:29:13;;;;;;;11.45;5.55;;;;;;;9.53;61.94;103034.16;4984636;28;124125;-70
2021/11/23 09:31:42;;;;;;;12.43;4.90;;;;;;;9.57;62.16;103040.31;4981379;28;107425;-70
2021/11/23 09:34:11;;;;;;;10.25;5.70;;;;;;;9.60;61.92;103037.66;4982897;28;107267;-70
2021/11/23 09:36:40;;;;;;;13.65;5.38;;;;;;;9.62;62.13;103035.88;4982399;28;125049;-70
2021/11/23 09:39:07;;;;;;;8.02;5.10;;;;;;;9.66;61.99;103029.69;4976582;28;124055;-70
2021/11/23 09:41:36;;;;;;;9.20;5.50;;;;;;;9.70;62.19;103039.34;4981027;28;107453;-70
2021/11/23 09:44:06;;;;;;;10.30;5.47;;;;;;;9.75;62.42;103041.09;4978518;28;107677;-69
2021/11/23 09:46:36;;;;;;;11.65;5.50;;;;;;;9.79;61.96;103041.94;4972590;28;124316;-69
2021/11/23 09:49:05;;;;;;;13.15;5.95;;;;;;;9.85;62.06;103047.22;4970806;28;124125;-70
2021/11/23 09:51:33;;;;;;;12.40;5.65;;;;;;;9.89;62.12;103038.38;4976888;28;107675;-70
2021/11/23 09:54:08;;;;;;;12.30;6.30;;;;;;;9.96;62.37;103035.69;4989776;28;107614;-70
2021/11/23 09:56:39;;;;;;;11.90;5.90;;;;;;;10.00;61.97;103029.47;4987672;28;124068;-69
2021/11/23 09:59:10;;;;;;;12.63;6.30;;;;;;;10.05;62.06;103032.97;4978889;28;123668;-70
2021/11/23 10:01:55;;;;;;;14.18;6.80;;;;;;;10.09;62.32;103029.41;4982092;28;107633;-70
2021/11/23 10:04:28;;;;;;;14.45;6.63;;;;;;;10.14;62.37;103032.91;4957866;28;107880;-69
2021/11/23 10:07:06;;;;;;;11.82;6.80;;;;;;;10.19;62.40;103036.41;4957574;28;124564;-69
2021/11/23 10:09:44;;;;;;;13.27;6.38;;;;;;;10.24;62.43;103037.22;4962646;28;124021;-69
2021/11/23 10:12:21;;;;;;;15.48;6.18;;;;;;;10.29;62.18;103031.91;4973490;28;107140;-70
2021/11/23 10:15:07;;;;;;;;;;;;;;;10.30;61.71;103034.56;4961091;28;107056;-70
2021/11/23 10:17:35;;;;;;;11.27;6.00;;;;;;;10.35;62.25;103031.00;4971350;28;124510;-70
2021/11/23 10:20:03;;;;;;;12.30;7.60;;;;;;;10.38;61.91;103025.66;4972444;28;123715;-69
2021/11/23 10:22:37;;;;;;;13.20;7.00;;;;;;;10.42;61.97;103027.41;4959025;28;107214;-70
2021/11/23 10:25:07;;;;;;;15.32;7.30;;;;;;;10.46;61.96;103029.13;4976738;28;107326;-69
2021/11/23 10:27:40;;;;;;;14.00;7.32;;;;;;;10.48;61.91;103027.34;4957283;28;124795;-68
2021/11/23 10:30:08;;;;;;;13.57;6.78;;;;;;;10.51;61.87;103027.31;4954539;28;123915;-68
2021/11/23 10:32:50;;;;;;;13.27;7.28;;;;;;;10.54;62.25;103027.28;4956776;28;108143;-69
2021/11/23 10:35:23;;;;;;;19.63;7.43;;;;;;;10.58;62.11;103023.69;4957822;28;107650;-69
2021/11/23 10:37:51;;;;;;;12.27;7.20;;;;;;;10.64;61.99;103023.66;4955506;28;124169;-68
2021/11/23 10:40:24;;;;;;;12.15;7.32;;;;;;;10.70;62.13;103018.28;4975346;28;123505;-68
2021/11/23 10:42:54;;;;;;;13.57;7.57;;;;;;;10.78;62.44;103023.50;4976456;28;107523;-68
2021/11/23 10:45:22;;;;;;;15.48;8.13;;;;;;;10.88;62.30;103021.63;4959139;28;106971;-69
2021/11/23 10:47:50;;;;;;;13.90;7.03;;;;;;;10.98;62.62;103022.38;4954531;28;124306;-69
2021/11/23 10:50:20;;;;;;;16.50;7.07;;;;;;;11.07;62.70;103020.50;4954496;28;123271;-68
2021/11/23 10:52:50;;;;;;;16.08;7.43;;;;;;;11.19;62.68;103010.63;4960316;28;107668;-69
2021/11/23 10:55:17;;;;;;;13.98;7.43;;;;;;;11.28;62.70;103005.22;4957744;28;107882;-69
2021/11/23 10:57:44;;;;;;;14.45;7.25;;;;;;;11.36;62.55;103003.34;4973179;28;123847;-68
2021/11/23 11:00:13;;;;;;;14.52;7.10;;;;;;;11.45;62.59;102999.69;4969877;28;123724;-69
2021/11/23 11:02:41;;;;;;;14.60;7.57;;;;;;;11.52;62.38;103001.34;4966030;28;107555;-69
2021/11/23 11:05:15;;;;;;;14.10;6.75;;;;;;;11.60;62.45;103001.25;4961941;28;108241;-68
2021/11/23 11:07:46;;;;;;;14.20;7.15;;;;;;;11.66;62.44;102983.47;4958606;28;124629;-68
2021/11/23 11:10:14;;;;;;;14.32;7.32;;;;;;;11.75;62.67;102985.06;4961683;28;123615;-68
2021/11/23 11:12:42;;;;;;;13.57;7.75;;;;;;;11.80;62.42;102980.56;4964938;28;107371;-69
2021/11/23 11:15:13;;;;;;;14.02;7.72;;;;;;;11.86;62.50;102977.81;4967423;28;107262;-69
2021/11/23 11:17:44;;;;;;;19.15;7.60;;;;;;;11.93;62.39;102983.09;4969768;28;124807;-68
2021/11/23 11:20:12;;;;;;;16.00;7.47;;;;;;;11.97;62.40;102995.41;4972129;28;123857;-68
2021/11/23 11:22:53;;;;;;;16.55;8.05;;;;;;;12.01;62.24;102991.78;4970762;28;108037;-68
2021/11/23 11:25:25;;;;;;;16.23;7.90;;;;;;;12.07;62.31;102981.06;4970273;28;107649;-68
2021/11/23 11:27:53;;;;;;;14.10;7.45;;;;;;;12.11;62.21;102982.78;4963579;28;123855;-68